Time;durP1;ratioP1;P1;durP2;ratioP2;P2;SDS_P1;SDS_P2;PMS_P1;PMS_P2;Temp;Humidity;BMP_temperature;BMP_pressure;BME280_temperature;BME280_humidity;BME280_pressure;Samples;Min_cycle;Max_cycle;Signal;HPM_P1;HPM_P2
2022/01/09 00:01:11;;;;;;;6.63;4.57;;;;;;;5.56;96.49;98582.56;5086322;28;20036;-73
2022/01/09 00:03:36;;;;;;;10.30;5.28;;;;;;;5.57;96.77;98594.91;5087683;28;20054;-73
2022/01/09 00:06:02;;;;;;;9.77;5.15;;;;;;;5.61;96.81;98620.19;5092191;28;20492;-73
2022/01/09 00:08:27;;;;;;;8.02;5.60;;;;;;;5.67;96.08;98621.06;5109254;28;20486;-72
2022/01/09 00:10:52;;;;;;;5.20;4.30;;;;;;;5.66;95.72;98640.91;5097861;28;20028;-72
2022/01/09 00:13:17;;;;;;;4.05;2.58;;;;;;;5.75;93.26;98663.59;5095399;28;20028;-73
2022/01/09 00:15:44;;;;;;;2.72;1.95;;;;;;;5.73;92.92;98672.94;5094252;28;20036;-73
2022/01/09 00:18:10;;;;;;;3.15;2.20;;;;;;;5.72;92.64;98698.16;5095222;28;20020;-73
2022/01/09 00:20:35;;;;;;;2.85;1.98;;;;;;;5.61;93.34;98692.63;5093732;28;20039;-73
2022/01/09 00:23:00;;;;;;;4.93;2.50;;;;;;;5.54;93.96;98718.00;5094890;28;20028;-73
2022/01/09 00:25:27;;;;;;;3.33;1.67;;;;;;;5.60;92.88;98725.06;5095335;28;20087;-72
2022/01/09 00:27:53;;;;;;;4.50;1.80;;;;;;;5.58;92.63;98729.88;5095315;28;20031;-72
2022/01/09 00:30:21;;;;;;;6.40;2.10;;;;;;;5.51;92.63;98724.69;5086336;28;20032;-72
2022/01/09 00:32:47;;;;;;;6.72;2.40;;;;;;;5.47;92.54;98735.06;5075742;28;20490;-72
2022/01/09 00:35:13;;;;;;;6.30;2.35;;;;;;;5.50;92.31;98742.63;5088269;28;20032;-72
2022/01/09 00:37:39;;;;;;;15.48;3.33;;;;;;;5.44;93.14;98757.00;5093810;28;20047;-72
2022/01/09 00:40:06;;;;;;;14.10;3.10;;;;;;;5.42;93.25;98759.13;5094341;28;20387;-72
2022/01/09 00:42:32;;;;;;;24.15;3.78;;;;;;;5.42;93.25;98777.09;5094793;28;20165;-72
2022/01/09 00:44:57;;;;;;;24.48;4.53;;;;;;;5.49;91.54;98781.22;5094731;28;20436;-72
2022/01/09 00:47:22;;;;;;;25.50;4.53;;;;;;;5.46;91.83;98781.72;5093411;28;20036;-72
2022/01/09 00:49:47;;;;;;;27.20;4.95;;;;;;;5.39;92.67;98789.13;5095041;28;20039;-72
2022/01/09 00:52:13;;;;;;;23.83;4.60;;;;;;;5.40;91.81;98809.50;5086692;28;20065;-72
2022/01/09 00:54:38;;;;;;;27.83;5.28;;;;;;;5.39;90.70;98807.06;5073215;28;20033;-72
2022/01/09 00:57:04;;;;;;;30.15;4.90;;;;;;;5.35;91.15;98806.75;5072964;28;20111;-73
2022/01/09 00:59:29;;;;;;;29.98;5.22;;;;;;;5.25;92.09;98802.00;5072816;28;20090;-72
2022/01/09 01:01:54;;;;;;;27.50;4.93;;;;;;;5.25;92.51;98818.09;5070600;28;20036;-72
2022/01/09 01:04:20;;;;;;;29.25;4.85;;;;;;;5.34;91.69;98826.56;5072770;28;20456;-73
2022/01/09 01:06:45;;;;;;;27.30;4.72;;;;;;;5.32;91.84;98834.06;5074353;28;20025;-73
2022/01/09 01:09:10;;;;;;;34.20;6.07;;;;;;;5.28;91.90;98847.13;5079743;28;20032;-72
2022/01/09 01:11:36;;;;;;;31.02;5.38;;;;;;;5.26;92.30;98846.53;5093102;28;20459;-74
2022/01/09 01:14:01;;;;;;;26.63;5.35;;;;;;;5.32;91.29;98840.22;5092476;28;20046;-72
2022/01/09 01:16:26;;;;;;;27.70;5.10;;;;;;;5.28;91.45;98857.03;5093084;28;20032;-74
2022/01/09 01:18:54;;;;;;;19.13;3.72;;;;;;;5.36;89.26;98845.09;5092915;28;20032;-73
2022/01/09 01:21:19;;;;;;;28.52;4.95;;;;;;;5.33;89.24;98867.88;5091747;28;20031;-74
2022/01/09 01:23:45;;;;;;;28.98;4.80;;;;;;;5.35;89.30;98873.81;5092589;28;20027;-74
2022/01/09 01:26:10;;;;;;;22.90;4.55;;;;;;;5.28;89.57;98887.38;5092405;28;20020;-73
2022/01/09 01:28:36;;;;;;;24.85;5.15;;;;;;;5.30;89.66;98889.81;5093388;28;20036;-73
2022/01/09 01:31:01;;;;;;;29.40;4.63;;;;;;;5.38;87.36;98877.88;5093431;28;20417;-72
2022/01/09 01:33:26;;;;;;;22.77;4.10;;;;;;;5.39;87.65;98899.09;5092747;28;20024;-73
2022/01/09 01:35:52;;;;;;;28.80;4.68;;;;;;;5.32;89.43;98888.50;5090592;28;20065;-72
2022/01/09 01:38:17;;;;;;;28.15;4.82;;;;;;;5.23;89.94;98891.81;5086043;28;20035;-73
2022/01/09 01:40:43;;;;;;;33.13;5.25;;;;;;;5.29;90.47;98904.25;5092380;28;20028;-73
2022/01/09 01:43:09;;;;;;;28.13;4.60;;;;;;;5.32;89.47;98917.19;5092250;28;20028;-73
2022/01/09 01:45:34;;;;;;;30.27;5.30;;;;;;;5.35;89.40;98908.66;5092682;28;20034;-73
2022/01/09 01:48:05;;;;;;;30.02;5.32;;;;;;;5.31;89.71;98945.91;5092415;28;20035;-73
2022/01/09 01:50:36;;;;;;;30.23;4.60;;;;;;;5.40;88.90;98940.94;5093934;28;20115;-73
2022/01/09 01:53:04;;;;;;;27.70;5.32;;;;;;;5.41;88.51;98939.91;5089643;28;20127;-73
2022/01/09 01:55:36;;;;;;;25.63;4.53;;;;;;;5.39;88.91;98939.34;5093561;28;20024;-73
2022/01/09 01:58:01;;;;;;;27.30;5.30;;;;;;;5.41;88.78;98961.38;5092734;28;20089;-73
2022/01/09 02:00:27;;;;;;;35.72;6.10;;;;;;;5.35;89.81;98973.03;5070339;28;20036;-73
2022/01/09 02:02:52;;;;;;;40.72;6.32;;;;;;;5.39;90.79;98966.16;5070953;28;20124;-73
2022/01/09 02:05:17;;;;;;;40.38;6.50;;;;;;;5.33;90.34;98973.28;5073212;28;20503;-73
2022/01/09 02:07:43;;;;;;;38.90;6.75;;;;;;;5.36;91.05;98984.56;5073074;28;20104;-74
2022/01/09 02:10:08;;;;;;;40.28;7.43;;;;;;;5.36;90.72;98985.41;5071741;28;20120;-74
2022/01/09 02:12:40;;;;;;;39.15;6.22;;;;;;;5.36;91.37;98995.31;5073008;28;20061;-74
2022/01/09 02:15:35;;;;;;;36.53;6.05;;;;;;;5.40;91.56;98999.97;5084334;28;20032;-74
2022/01/09 02:18:09;;;;;;;36.38;6.97;;;;;;;5.50;90.25;99000.19;5091896;28;20525;-73
2022/01/09 02:20:36;;;;;;;40.38;7.03;;;;;;;5.49;90.24;99011.94;5091644;28;20066;-73
2022/01/09 02:23:03;;;;;;;44.75;7.78;;;;;;;5.49;89.59;99017.31;5072912;28;20032;-73
2022/01/09 02:25:29;;;;;;;34.20;6.03;;;;;;;5.47;90.45;99027.47;5072807;28;20044;-74
2022/01/09 02:27:55;;;;;;;38.88;6.40;;;;;;;5.45;90.45;99018.84;5071565;28;20125;-74
2022/01/09 02:30:20;;;;;;;42.53;7.65;;;;;;;5.52;90.35;99028.66;5072728;28;20051;-74
2022/01/09 02:32:46;;;;;;;39.95;6.97;;;;;;;5.49;90.03;99025.38;5072609;28;20036;-74
2022/01/09 02:35:11;;;;;;;41.33;6.22;;;;;;;5.58;89.65;99033.06;5071197;28;20024;-73
2022/01/09 02:37:36;;;;;;;40.58;7.15;;;;;;;5.50;90.31;99034.25;5072665;28;20384;-74
2022/01/09 02:40:04;;;;;;;30.20;5.75;;;;;;;5.53;90.03;99046.38;5071267;28;20036;-74
2022/01/09 02:42:30;;;;;;;31.10;6.13;;;;;;;5.53;89.36;99057.91;5071218;28;20035;-74
2022/01/09 02:44:56;;;;;;;36.50;6.22;;;;;;;5.55;89.65;99063.84;5089576;28;20501;-74
2022/01/09 02:47:22;;;;;;;37.50;6.45;;;;;;;5.53;89.36;99063.28;5092562;28;20063;-74
2022/01/09 02:49:51;;;;;;;29.85;5.25;;;;;;;5.55;89.29;99063.06;5091956;28;20020;-74
2022/01/09 02:57:37;;;;;;;33.17;5.40;;;;;;;5.46;89.19;99092.91;5092458;28;20096;-74
2022/01/09 03:00:05;;;;;;;38.13;5.50;;;;;;;5.52;88.84;99095.72;5091038;28;20087;-74
2022/01/09 03:02:30;;;;;;;31.92;4.65;;;;;;;5.46;88.51;99100.94;5088703;28;20077;-74
2022/01/09 03:04:56;;;;;;;27.73;5.05;;;;;;;5.47;89.10;99112.53;5091262;28;20028;-74
2022/01/09 03:07:21;;;;;;;26.80;4.85;;;;;;;5.48;87.30;99116.81;5072753;28;20029;-74
2022/01/09 03:09:46;;;;;;;31.52;5.82;;;;;;;5.52;86.94;99134.09;5089850;28;20031;-75
2022/01/09 03:12:12;;;;;;;26.10;4.00;;;;;;;5.53;86.61;99127.69;5083790;28;20039;-74
2022/01/09 03:14:37;;;;;;;30.02;5.45;;;;;;;5.42;87.80;99140.06;5072317;28;20360;-75
2022/01/09 03:17:03;;;;;;;22.42;4.50;;;;;;;5.42;87.29;99140.06;5085152;28;20468;-76
2022/01/09 03:19:28;;;;;;;26.33;4.32;;;;;;;5.49;85.85;99146.09;5111184;28;20038;-76
2022/01/09 03:21:54;;;;;;;28.88;4.80;;;;;;;5.44;85.88;99146.00;5111510;28;20023;-75
2022/01/09 03:24:19;;;;;;;29.15;4.45;;;;;;;5.40;85.89;99165.47;5110896;28;20030;-75
2022/01/09 03:26:45;;;;;;;22.30;3.63;;;;;;;5.41;85.61;99165.22;5111671;28;20114;-75
2022/01/09 03:29:10;;;;;;;26.48;4.43;;;;;;;5.30;85.86;99160.69;5088661;28;20036;-75
2022/01/09 03:31:35;;;;;;;28.58;4.55;;;;;;;5.32;85.51;99178.16;5091196;28;20024;-75
2022/01/09 03:34:01;;;;;;;20.58;4.03;;;;;;;5.29;86.15;99193.91;5092083;28;20028;-75
2022/01/09 03:36:26;;;;;;;26.30;4.47;;;;;;;5.28;85.15;99181.53;5090787;28;20464;-76
2022/01/09 03:38:52;;;;;;;27.98;4.13;;;;;;;5.35;84.09;99187.63;5090819;28;20032;-75
2022/01/09 03:41:17;;;;;;;27.70;4.20;;;;;;;5.31;84.75;99202.53;5092304;28;20039;-75
2022/01/09 03:43:42;;;;;;;29.85;4.47;;;;;;;5.30;84.64;99207.09;5090940;28;20043;-75
2022/01/09 03:46:07;;;;;;;24.08;4.10;;;;;;;5.29;84.06;99210.81;5093370;28;20032;-76
2022/01/09 03:48:33;;;;;;;22.67;3.78;;;;;;;5.28;84.69;99219.94;5095781;28;20085;-75
2022/01/09 03:50:58;;;;;;;20.88;4.32;;;;;;;5.24;85.29;99221.44;5080240;28;20481;-75
2022/01/09 03:53:23;;;;;;;23.80;4.32;;;;;;;5.26;85.10;99230.06;5075211;28;20036;-75
2022/01/09 03:55:49;;;;;;;27.45;4.60;;;;;;;5.39;83.96;99229.03;5075616;28;20722;-76
2022/01/09 03:58:14;;;;;;;21.25;4.65;;;;;;;5.27;84.67;99233.56;5073609;28;20075;-75
2022/01/09 04:00:39;;;;;;;27.35;4.22;;;;;;;5.24;84.58;99236.69;5071955;28;20118;-76
2022/01/09 04:03:05;;;;;;;29.08;3.92;;;;;;;5.28;84.16;99243.22;5074261;28;20028;-76
2022/01/09 04:05:30;;;;;;;25.73;4.75;;;;;;;5.26;83.77;99240.78;5074945;28;20391;-75
2022/01/09 04:07:55;;;;;;;18.60;3.33;;;;;;;5.24;83.76;99256.28;5074179;28;20028;-75
2022/01/09 04:10:24;;;;;;;24.23;3.58;;;;;;;5.18;83.71;99259.06;5074057;28;20028;-75
2022/01/09 04:12:58;;;;;;;23.85;3.78;;;;;;;5.20;83.63;99270.38;5084433;28;20166;-75
2022/01/09 04:15:23;;;;;;;23.88;3.80;;;;;;;5.19;83.39;99282.16;5093909;28;20115;-75
2022/01/09 04:17:55;;;;;;;20.95;4.18;;;;;;;5.09;83.70;99280.03;5094196;28;20439;-75
2022/01/09 04:20:31;;;;;;;17.38;3.50;;;;;;;5.07;84.23;99290.16;5095181;28;20024;-75
2022/01/09 04:22:58;;;;;;;19.00;3.25;;;;;;;5.10;83.57;99295.06;5093993;28;20488;-75
2022/01/09 04:25:24;;;;;;;23.58;3.72;;;;;;;5.08;84.27;99297.16;5093727;28;20467;-75
2022/01/09 04:27:51;;;;;;;19.55;3.40;;;;;;;5.01;84.26;99305.28;5093936;28;20028;-76
2022/01/09 04:30:16;;;;;;;18.85;3.60;;;;;;;4.97;84.51;99307.59;5094977;28;20028;-75
2022/01/09 04:32:42;;;;;;;21.88;4.00;;;;;;;5.01;83.98;99320.53;5093965;28;20034;-75
2022/01/09 04:35:08;;;;;;;20.88;3.88;;;;;;;4.97;84.36;99317.50;5074869;28;20391;-75
2022/01/09 04:37:34;;;;;;;22.63;3.90;;;;;;;4.95;83.70;99327.63;5073356;28;20028;-75
2022/01/09 04:40:00;;;;;;;18.42;3.03;;;;;;;5.02;83.81;99338.28;5073346;28;20073;-75
2022/01/09 04:42:37;;;;;;;18.98;2.97;;;;;;;4.92;84.22;99334.28;5073315;28;20120;-75
2022/01/09 04:45:04;;;;;;;18.75;3.05;;;;;;;4.99;83.73;99336.06;5073622;28;20025;-75
2022/01/09 04:47:29;;;;;;;24.80;3.85;;;;;;;4.94;84.13;99350.94;5072905;28;20043;-75
2022/01/09 04:49:55;;;;;;;18.58;3.05;;;;;;;4.95;83.84;99355.28;5074909;28;20420;-75
2022/01/09 04:52:24;;;;;;;21.67;3.28;;;;;;;4.88;83.75;99359.88;5074628;28;20024;-75
2022/01/09 04:54:50;;;;;;;16.08;3.17;;;;;;;4.83;84.20;99367.78;5073209;28;20477;-76
2022/01/09 04:57:15;;;;;;;17.90;4.20;;;;;;;4.86;84.12;99372.69;5082449;28;20027;-75
2022/01/09 04:59:41;;;;;;;18.15;3.40;;;;;;;4.85;83.66;99375.59;5094613;28;20117;-75
2022/01/09 05:02:06;;;;;;;19.35;3.45;;;;;;;4.81;84.24;99377.91;5090950;28;20032;-75
2022/01/09 05:04:31;;;;;;;23.05;3.22;;;;;;;4.79;83.77;99396.06;5094326;28;20455;-75
2022/01/09 05:06:56;;;;;;;16.77;3.08;;;;;;;4.81;83.82;99398.53;5091602;28;20063;-75
2022/01/09 05:09:22;;;;;;;19.58;3.20;;;;;;;4.78;84.45;99403.28;5075517;28;20422;-75
2022/01/09 05:11:47;;;;;;;16.60;3.03;;;;;;;4.83;83.72;99404.47;5072928;28;20067;-75
2022/01/09 05:14:12;;;;;;;20.05;3.15;;;;;;;4.84;83.49;99416.84;5072831;28;20033;-75
2022/01/09 05:16:42;;;;;;;18.17;3.72;;;;;;;4.80;83.71;99421.81;5072630;28;20041;-75
2022/01/09 05:19:16;;;;;;;20.88;3.80;;;;;;;4.77;84.38;99425.78;5073744;28;20051;-75
2022/01/09 05:21:42;;;;;;;16.27;3.25;;;;;;;4.74;84.83;99444.13;5072668;28;20024;-75
2022/01/09 05:24:07;;;;;;;19.60;3.50;;;;;;;4.73;85.56;99455.91;5073734;28;20082;-75
2022/01/09 05:26:33;;;;;;;21.10;3.40;;;;;;;4.66;85.75;99458.66;5073549;28;20037;-74
2022/01/09 05:28:58;;;;;;;16.95;3.33;;;;;;;4.63;86.99;99464.44;5092836;28;20032;-75
2022/01/09 05:31:24;;;;;;;18.98;3.55;;;;;;;4.63;86.88;99469.00;5092567;28;20580;-74
2022/01/09 05:33:49;;;;;;;21.33;3.95;;;;;;;4.63;87.61;99464.44;5092452;28;20070;-75
2022/01/09 05:36:14;;;;;;;16.45;3.63;;;;;;;4.56;88.61;99469.03;5092770;28;20036;-74
2022/01/09 05:38:40;;;;;;;15.60;3.40;;;;;;;4.50;88.57;99468.06;5092372;28;20024;-75
2022/01/09 05:41:05;;;;;;;14.15;3.30;;;;;;;4.51;89.49;99479.59;5090809;28;20091;-74
2022/01/09 05:43:31;;;;;;;13.77;3.25;;;;;;;4.51;89.35;99483.09;5092275;28;20129;-75
2022/01/09 05:45:57;;;;;;;19.58;3.75;;;;;;;4.49;89.63;99479.00;5092518;28;20130;-74
2022/01/09 05:48:22;;;;;;;18.38;3.33;;;;;;;4.56;89.37;99485.94;5092628;28;20070;-74
2022/01/09 05:50:47;;;;;;;19.15;3.50;;;;;;;4.51;89.37;99488.44;5092369;28;20039;-74
2022/01/09 05:53:13;;;;;;;21.77;3.75;;;;;;;4.54;89.21;99485.34;5091601;28;20035;-74
2022/01/09 05:55:38;;;;;;;19.10;4.15;;;;;;;4.60;87.58;99491.69;5075887;28;20055;-74
2022/01/09 05:58:03;;;;;;;23.02;3.90;;;;;;;4.60;87.36;99491.69;5091985;28;20547;-74
2022/01/09 06:00:29;;;;;;;17.85;3.63;;;;;;;4.65;87.38;99494.53;5090391;28;20467;-75
2022/01/09 06:02:54;;;;;;;17.00;3.50;;;;;;;4.63;87.06;99498.47;5089815;28;20585;-75
2022/01/09 06:05:19;;;;;;;19.58;3.58;;;;;;;4.57;87.14;99497.47;5091901;28;20031;-74
2022/01/09 06:07:45;;;;;;;19.42;3.67;;;;;;;4.58;86.32;99499.13;5091545;28;20038;-75
2022/01/09 06:10:11;;;;;;;24.55;3.85;;;;;;;4.59;86.44;99501.59;5093620;28;20379;-74
2022/01/09 06:12:37;;;;;;;21.27;3.85;;;;;;;4.56;87.46;99514.56;5091834;28;20032;-74
2022/01/09 06:15:03;;;;;;;18.45;3.42;;;;;;;4.55;87.17;99507.59;5091751;28;20024;-74
2022/01/09 06:17:28;;;;;;;22.83;3.30;;;;;;;4.69;85.24;99522.50;5091345;28;20097;-75
2022/01/09 06:19:53;;;;;;;21.80;3.50;;;;;;;4.59;86.67;99524.88;5092831;28;20028;-75
2022/01/09 06:22:19;;;;;;;23.88;3.50;;;;;;;4.59;86.11;99520.34;5091657;28;20115;-75
2022/01/09 06:24:46;;;;;;;21.83;3.75;;;;;;;4.59;86.62;99524.88;5091415;28;20053;-75
2022/01/09 06:27:13;;;;;;;14.77;3.72;;;;;;;4.57;86.38;99534.97;5092796;28;20032;-75
2022/01/09 06:29:39;;;;;;;18.17;3.75;;;;;;;4.55;86.51;99534.41;5091532;28;20042;-74
2022/01/09 06:32:05;;;;;;;20.95;3.30;;;;;;;4.50;87.56;99536.88;5092828;28;20020;-74
2022/01/09 06:34:30;;;;;;;22.23;3.67;;;;;;;4.54;86.96;99546.94;5091571;28;20084;-75
2022/01/09 06:36:55;;;;;;;17.25;3.33;;;;;;;4.56;86.01;99538.69;5091391;28;20020;-75
2022/01/09 06:39:21;;;;;;;22.73;4.10;;;;;;;4.57;86.28;99545.69;5078100;28;20033;-74
2022/01/09 06:41:46;;;;;;;20.08;4.00;;;;;;;4.54;85.90;99551.50;5072556;28;20063;-75
2022/01/09 06:44:11;;;;;;;16.13;3.10;;;;;;;4.49;86.52;99551.34;5071324;28;20025;-75
2022/01/09 06:46:37;;;;;;;16.60;3.78;;;;;;;4.52;86.19;99558.94;5071752;28;20468;-75
2022/01/09 06:49:02;;;;;;;17.35;3.58;;;;;;;4.58;85.88;99558.88;5070970;28;20460;-74
2022/01/09 06:51:28;;;;;;;18.73;3.05;;;;;;;4.59;85.77;99557.03;5072131;28;20029;-74
2022/01/09 06:53:53;;;;;;;17.67;3.47;;;;;;;4.67;85.17;99570.16;5072553;28;20037;-74
2022/01/09 06:56:18;;;;;;;16.83;3.42;;;;;;;4.55;86.60;99575.38;5072473;28;20043;-74
2022/01/09 06:58:44;;;;;;;20.30;3.38;;;;;;;4.57;86.43;99577.84;5083329;28;20075;-75
2022/01/09 07:01:09;;;;;;;18.40;3.15;;;;;;;4.62;86.01;99580.72;5089073;28;20067;-75
2022/01/09 07:03:34;;;;;;;16.77;3.60;;;;;;;4.56;86.50;99585.06;5091098;28;20097;-75
2022/01/09 07:06:00;;;;;;;13.95;2.95;;;;;;;4.57;86.11;99588.56;5091322;28;20032;-75
2022/01/09 07:08:27;;;;;;;18.48;3.55;;;;;;;4.58;86.06;99593.72;5089898;28;20024;-75
2022/01/09 07:10:52;;;;;;;20.67;3.30;;;;;;;4.58;85.57;99598.25;5090918;28;20616;-75
2022/01/09 07:13:18;;;;;;;18.23;3.08;;;;;;;4.51;85.78;99606.31;5091257;28;20028;-74
2022/01/09 07:15:44;;;;;;;19.58;3.80;;;;;;;4.49;87.09;99612.94;5090991;28;20514;-75
2022/01/09 07:18:09;;;;;;;19.10;3.22;;;;;;;4.49;86.89;99608.41;5091647;28;20109;-75
2022/01/09 07:20:35;;;;;;;20.13;3.53;;;;;;;4.47;87.36;99615.00;5092623;28;20062;-74
2022/01/09 07:23:00;;;;;;;17.58;3.42;;;;;;;4.49;87.54;99626.34;5096808;28;20039;-75
2022/01/09 07:25:25;;;;;;;19.08;3.22;;;;;;;4.48;87.95;99633.53;5095090;28;20382;-75
2022/01/09 07:27:51;;;;;;;17.20;3.60;;;;;;;4.44;88.42;99635.84;5094909;28;20467;-75
2022/01/09 07:30:16;;;;;;;19.05;3.70;;;;;;;4.51;87.33;99640.34;5094775;28;20027;-76
2022/01/09 07:32:41;;;;;;;17.83;3.15;;;;;;;4.47;87.11;99634.59;5093399;28;20046;-75
2022/01/09 07:35:07;;;;;;;19.50;2.60;;;;;;;4.32;87.55;99640.25;5096030;28;20028;-75
2022/01/09 07:37:33;;;;;;;17.13;3.20;;;;;;;4.33;87.69;99636.50;5093918;28;20030;-75
2022/01/09 07:39:59;;;;;;;16.60;3.10;;;;;;;4.31;87.79;99643.94;5082481;28;20108;-75
2022/01/09 07:42:25;;;;;;;18.17;3.40;;;;;;;4.33;87.14;99649.09;5092112;28;20027;-75
2022/01/09 07:44:51;;;;;;;16.45;3.47;;;;;;;4.29;87.43;99651.38;5094555;28;20089;-74
2022/01/09 07:47:16;;;;;;;17.42;3.22;;;;;;;4.34;87.75;99656.09;5096225;28;20028;-74
2022/01/09 07:49:41;;;;;;;22.05;3.42;;;;;;;4.32;86.77;99661.66;5094454;28;20039;-74
2022/01/09 07:52:07;;;;;;;21.08;3.47;;;;;;;4.30;87.09;99666.38;5096267;28;20063;-74
2022/01/09 07:54:32;;;;;;;18.00;2.92;;;;;;;4.28;87.32;99681.84;5094243;28;20055;-74
2022/01/09 07:56:57;;;;;;;13.00;2.90;;;;;;;4.25;86.38;99671.56;5094891;28;20028;-75
2022/01/09 07:59:23;;;;;;;13.60;2.67;;;;;;;4.26;86.50;99679.41;5093700;28;20059;-74
2022/01/09 08:01:50;;;;;;;9.98;2.45;;;;;;;4.25;85.90;99676.94;5091650;28;20078;-74
2022/01/09 08:04:15;;;;;;;9.82;2.45;;;;;;;4.32;86.02;99688.44;5094442;28;20493;-75
2022/01/09 08:06:41;;;;;;;15.38;2.78;;;;;;;4.32;85.31;99688.44;5094140;28;20036;-75
2022/01/09 08:09:06;;;;;;;12.88;2.42;;;;;;;4.30;85.58;99687.00;5095728;28;20024;-74
2022/01/09 08:11:32;;;;;;;12.50;2.40;;;;;;;4.24;85.04;99691.34;5094126;28;20031;-74
2022/01/09 08:13:58;;;;;;;13.02;2.50;;;;;;;4.11;86.36;99694.06;5094226;28;20508;-74
2022/01/09 08:16:23;;;;;;;10.27;2.42;;;;;;;4.15;86.63;99706.00;5091999;28;20032;-75
2022/01/09 08:18:49;;;;;;;14.50;2.40;;;;;;;4.14;86.19;99699.03;5093677;28;20109;-74
2022/01/09 08:21:19;;;;;;;14.35;2.35;;;;;;;4.11;87.10;99712.81;5093947;28;20177;-75
2022/01/09 08:23:45;;;;;;;14.85;2.40;;;;;;;4.15;86.13;99725.59;5095296;28;20063;-74
2022/01/09 08:26:11;;;;;;;11.38;2.88;;;;;;;4.18;86.57;99735.88;5093709;28;20563;-75
2022/01/09 08:28:38;;;;;;;14.35;2.80;;;;;;;4.16;86.96;99735.25;5095081;28;20051;-75
2022/01/09 08:31:03;;;;;;;17.63;3.13;;;;;;;4.18;87.12;99732.34;5093518;28;20051;-75
2022/01/09 08:33:28;;;;;;;11.73;2.67;;;;;;;4.18;87.55;99735.03;5088424;28;20434;-74
2022/01/09 08:35:55;;;;;;;13.52;2.60;;;;;;;4.21;87.76;99731.94;5073675;28;20032;-75
2022/01/09 08:38:20;;;;;;;15.93;2.97;;;;;;;4.23;87.84;99727.22;5073571;28;20043;-75
2022/01/09 08:40:46;;;;;;;11.52;2.65;;;;;;;4.25;88.32;99730.50;5073193;28;20032;-75
2022/01/09 08:43:11;;;;;;;15.00;2.65;;;;;;;4.28;87.64;99740.78;5073489;28;20024;-75
2022/01/09 08:45:36;;;;;;;18.98;3.25;;;;;;;4.28;87.35;99740.78;5074550;28;20475;-75
2022/01/09 08:48:01;;;;;;;13.27;3.05;;;;;;;4.30;87.78;99741.38;5073433;28;20070;-75
2022/01/09 08:50:27;;;;;;;14.77;2.58;;;;;;;4.31;87.75;99751.06;5074413;28;20024;-75
2022/01/09 08:52:52;;;;;;;17.58;3.05;;;;;;;4.34;87.56;99753.31;5078231;28;20035;-74
2022/01/09 08:55:18;;;;;;;17.05;3.30;;;;;;;4.26;87.38;99754.38;5095101;28;20032;-74
2022/01/09 08:57:44;;;;;;;13.82;2.88;;;;;;;4.30;86.68;99762.00;5094521;28;20454;-76
2022/01/09 09:00:10;;;;;;;14.95;2.78;;;;;;;4.30;86.58;99765.47;5094556;28;20131;-84
2022/01/09 09:02:36;;;;;;;16.02;3.00;;;;;;;4.28;87.25;99769.44;5092109;28;20405;-74
2022/01/09 09:05:01;;;;;;;13.15;3.05;;;;;;;4.32;86.98;99771.47;5093337;28;20031;-77
2022/01/09 09:07:27;;;;;;;20.52;3.30;;;;;;;4.31;87.19;99772.50;5094504;28;20039;-77
2022/01/09 09:09:52;;;;;;;24.48;4.30;;;;;;;4.30;87.55;99776.19;5094332;28;20028;-77
2022/01/09 09:12:18;;;;;;;15.95;3.47;;;;;;;4.35;87.84;99776.41;5093266;28;20084;-71
2022/01/09 09:14:46;;;;;;;16.92;3.33;;;;;;;4.43;88.09;99780.72;5077728;28;20032;-75
2022/01/09 09:17:11;;;;;;;18.58;3.28;;;;;;;4.47;88.18;99794.50;5073715;28;20115;-76
2022/01/09 09:19:37;;;;;;;18.00;3.78;;;;;;;4.51;88.11;99793.03;5073902;28;20163;-76
2022/01/09 09:22:02;;;;;;;19.73;3.42;;;;;;;4.49;88.57;99789.75;5074036;28;20043;-76
2022/01/09 09:24:28;;;;;;;19.27;3.50;;;;;;;4.52;87.58;99797.38;5073995;28;20124;-76
2022/01/09 09:26:54;;;;;;;13.07;2.88;;;;;;;4.50;87.58;99794.06;5073808;28;20521;-76
2022/01/09 09:29:19;;;;;;;21.77;3.38;;;;;;;4.53;88.01;99807.88;5073926;28;20032;-77
2022/01/09 09:31:44;;;;;;;16.42;3.35;;;;;;;4.54;87.88;99797.97;5072561;28;20482;-77
2022/01/09 09:34:09;;;;;;;23.80;3.65;;;;;;;4.58;86.90;99810.75;5077316;28;20032;-76
2022/01/09 09:36:35;;;;;;;21.67;3.60;;;;;;;4.63;87.07;99817.31;5071925;28;20032;-77
2022/01/09 09:39:02;;;;;;;19.23;3.75;;;;;;;4.64;86.94;99822.47;5089122;28;20027;-79
2022/01/09 09:41:28;;;;;;;24.35;3.75;;;;;;;4.63;87.14;99812.78;5076022;28;20109;-77
2022/01/09 09:43:53;;;;;;;15.73;3.40;;;;;;;4.72;86.55;99826.78;5085033;28;20469;-77
2022/01/09 09:46:23;;;;;;;19.50;3.03;;;;;;;4.74;86.12;99824.69;5092382;28;20043;-85
2022/01/09 09:48:50;;;;;;;19.60;3.35;;;;;;;4.78;86.04;99845.50;5087866;28;20028;-77
2022/01/09 09:51:15;;;;;;;15.40;2.88;;;;;;;4.78;85.02;99840.13;5107248;28;20043;-77
2022/01/09 09:53:41;;;;;;;14.23;2.95;;;;;;;4.67;86.17;99843.50;5088969;28;20027;-77
2022/01/09 09:56:06;;;;;;;13.25;2.55;;;;;;;4.66;86.24;99849.88;5098821;28;20038;-77
2022/01/09 09:58:31;;;;;;;10.52;2.28;;;;;;;4.56;86.72;99849.47;5098106;28;20055;-78
2022/01/09 10:00:57;;;;;;;14.32;2.47;;;;;;;4.51;87.08;99852.78;5080178;28;20028;-82
2022/01/09 10:03:33;;;;;;;16.30;3.03;;;;;;;4.54;87.44;99859.59;5075351;28;20038;-80
2022/01/09 10:06:01;;;;;;;16.60;2.95;;;;;;;4.52;87.80;99851.78;5073026;28;20107;-80
2022/01/09 10:08:39;;;;;;;16.85;3.20;;;;;;;4.56;88.35;99860.19;5078601;28;20037;-76
2022/01/09 10:11:18;;;;;;;19.38;3.95;;;;;;;4.59;88.46;99857.13;5074315;28;20071;-77
2022/01/09 10:13:44;;;;;;;21.17;3.47;;;;;;;4.60;88.92;99854.25;5072881;28;20028;-76
2022/01/09 10:16:10;;;;;;;22.35;3.67;;;;;;;4.67;89.01;99858.75;5072987;28;20051;-78
2022/01/09 10:18:38;;;;;;;25.48;6.22;;;;;;;4.72;89.74;99853.56;5072750;28;20515;-75
2022/01/09 10:21:22;;;;;;;18.20;5.38;;;;;;;4.78;89.36;99856.22;5071387;28;20032;-75
2022/01/09 10:24:10;;;;;;;21.67;5.13;;;;;;;4.85;89.46;99860.75;5072774;28;20035;-78
2022/01/09 10:26:38;;;;;;;22.33;3.88;;;;;;;4.89;89.07;99870.00;5072667;28;20077;-77
2022/01/09 10:29:06;;;;;;;19.95;4.72;;;;;;;4.99;88.53;99864.22;5084281;28;20491;-78
2022/01/09 10:31:40;;;;;;;22.95;6.30;;;;;;;4.99;88.94;99869.56;5090932;28;20062;-76
2022/01/09 10:34:07;;;;;;;34.25;16.02;;;;;;;5.04;88.69;99867.06;5077812;28;20039;-76
2022/01/09 10:36:39;;;;;;;19.33;4.07;;;;;;;5.11;87.17;99867.88;5098736;28;20033;-76
2022/01/09 10:39:05;;;;;;;;;;;;;;;5.18;87.50;99867.81;5091818;28;20464;-80
2022/01/09 10:41:51;;;;;;;19.17;3.95;;;;;;;5.14;88.15;99873.63;5089471;28;19916;-77
2022/01/09 10:44:21;;;;;;;14.60;3.72;;;;;;;5.10;87.46;99882.31;5079268;28;20076;-75
2022/01/09 10:47:05;;;;;;;20.40;4.28;;;;;;;5.12;88.21;99885.63;5078453;28;20025;-78
2022/01/09 10:49:47;;;;;;;27.38;5.05;;;;;;;5.22;87.29;99880.59;5084282;28;20035;-76
2022/01/09 10:52:18;;;;;;;16.10;5.72;;;;;;;5.20;88.10;99887.22;5090683;28;20024;-77
2022/01/09 10:54:46;;;;;;;26.65;5.38;;;;;;;5.20;88.02;99887.22;5090397;28;20020;-75
2022/01/09 10:57:47;;;;;;;16.33;3.60;;;;;;;5.37;86.78;99882.19;5082318;28;20040;-78
2022/01/09 11:00:15;;;;;;;22.35;3.75;;;;;;;5.33;86.00;99884.50;5085317;28;20054;-78
2022/01/09 11:02:42;;;;;;;16.98;4.07;;;;;;;5.32;87.50;99885.50;5088849;28;20028;-73
2022/01/09 11:05:08;;;;;;;19.63;4.57;;;;;;;5.46;86.53;99891.63;5078370;28;20036;-77
2022/01/09 11:07:34;;;;;;;20.15;4.40;;;;;;;5.50;85.13;99895.53;5071031;28;20081;-76
2022/01/09 11:10:00;;;;;;;21.75;4.00;;;;;;;5.55;85.89;99897.56;5076771;28;20035;-74
2022/01/09 11:12:32;;;;;;;21.85;4.18;;;;;;;5.63;85.72;99902.66;5084472;28;20032;-77
2022/01/09 11:15:00;;;;;;;21.08;3.47;;;;;;;5.58;84.64;99894.47;5075194;28;20064;-77
2022/01/09 11:17:27;;;;;;;15.07;2.75;;;;;;;5.60;84.08;99898.56;5070758;28;20064;-76
2022/01/09 11:19:52;;;;;;;14.52;2.67;;;;;;;5.56;84.07;99896.53;5070365;28;20429;-78
2022/01/09 11:22:19;;;;;;;20.90;3.63;;;;;;;5.61;84.57;99910.13;5083222;28;20036;-78
2022/01/09 11:25:07;;;;;;;21.50;3.65;;;;;;;5.62;84.43;99911.78;5075013;28;20052;-73
2022/01/09 11:27:55;;;;;;;18.27;4.07;;;;;;;5.68;84.53;99917.09;5090510;28;20059;-83
2022/01/09 11:30:45;;;;;;;19.05;2.55;;;;;;;5.66;85.00;99921.03;5071862;28;20429;-77
2022/01/09 11:33:29;;;;;;;17.00;3.45;;;;;;;5.66;85.40;99919.19;5072303;28;20060;-76
2022/01/09 11:36:19;;;;;;;20.95;3.45;;;;;;;5.67;85.49;99915.44;5070513;28;20028;-76
2022/01/09 11:38:53;;;;;;;17.65;3.75;;;;;;;5.73;83.54;99924.50;5075005;28;20038;-76